Time;durP1;ratioP1;P1;durP2;ratioP2;P2;SDS_P1;SDS_P2;PMS_P1;PMS_P2;Temp;Humidity;BMP_temperature;BMP_pressure;BME280_temperature;BME280_humidity;BME280_pressure;Samples;Min_cycle;Max_cycle;Signal;HPM_P1;HPM_P2
2022/03/11 09:10:18;;;;;;;17.23;9.60;;;0.30;87.20;;;;;;1938962;73;25742;-45
2022/03/11 09:12:49;;;;;;;18.67;11.70;;;0.50;87.30;;;;;;1900903;75;21868;-48
2022/03/11 09:15:19;;;;;;;21.05;12.25;;;0.60;87.50;;;;;;1898870;75;21158;-47
2022/03/11 09:17:48;;;;;;;28.00;14.47;;;0.60;86.80;;;;;;1901195;75;20995;-47
2022/03/11 09:20:18;;;;;;;25.68;15.28;;;0.60;87.60;;;;;;1865965;76;21109;-46
2022/03/11 09:22:47;;;;;;;24.45;14.73;;;0.70;87.20;;;;;;1863708;76;21130;-46
2022/03/11 09:25:18;;;;;;;26.68;14.23;;;0.70;87.60;;;;;;1846514;77;21266;-49
2022/03/11 09:30:01;;;;;;;23.47;13.98;;;0.90;86.80;;;;;;1938280;72;25941;-48
2022/03/11 09:32:30;;;;;;;20.57;12.93;;;0.90;86.90;;;;;;1916712;74;21053;-47
2022/03/11 09:34:59;;;;;;;27.75;14.10;;;0.90;87.00;;;;;;1914798;74;21452;-48
2022/03/11 09:37:29;;;;;;;16.27;10.68;;;0.80;86.50;;;;;;1915672;74;21071;-46
2022/03/11 09:39:58;;;;;;;23.12;13.58;;;0.80;87.40;;;;;;1919661;74;21015;-45
2022/03/11 09:42:28;;;;;;;19.65;13.60;;;0.80;86.60;;;;;;1916081;74;21084;-46
2022/03/11 09:44:58;;;;;;;20.40;13.32;;;0.80;86.80;;;;;;1918346;73;21046;-48
2022/03/11 09:47:27;;;;;;;29.23;14.43;;;0.80;87.60;;;;;;1915905;74;21029;-46
2022/03/11 09:50:02;;;;;;;23.85;14.18;;;0.90;87.20;;;;;;1916379;74;21005;-47
2022/03/11 09:52:34;;;;;;;25.60;16.73;;;0.90;87.60;;;;;;1914362;74;21088;-46
2022/03/11 09:55:03;;;;;;;25.37;14.80;;;0.90;88.00;;;;;;1916196;74;21061;-48
2022/03/11 09:57:32;;;;;;;27.42;16.65;;;1.00;86.60;;;;;;1919231;74;21064;-48
2022/03/11 10:00:04;;;;;;;18.35;11.12;;;1.00;85.80;;;;;;1902966;75;21042;-48
2022/03/11 10:02:34;;;;;;;25.23;15.58;;;1.00;87.30;;;;;;1896477;75;21123;-47
2022/03/11 10:05:03;;;;;;;29.07;16.77;;;1.10;87.30;;;;;;1914767;74;21101;-46
2022/03/11 10:07:33;;;;;;;29.90;16.82;;;1.10;87.40;;;;;;1909530;74;21061;-47
2022/03/11 10:10:14;;;;;;;31.40;18.98;;;1.20;87.50;;;;;;1916826;74;21045;-46
2022/03/11 10:12:46;;;;;;;12.68;9.15;;;1.20;86.70;;;;;;1914572;74;21086;-47
2022/03/11 10:15:17;;;;;;;25.50;16.90;;;1.20;86.30;;;;;;1914602;74;21566;-47
2022/03/11 10:17:46;;;;;;;48.38;31.17;;;1.20;86.60;;;;;;1914433;74;22321;-48
2022/03/11 10:20:16;;;;;;;39.10;26.35;;;1.20;86.10;;;;;;1917683;74;21052;-48
2022/03/11 10:22:46;;;;;;;42.85;27.22;;;1.20;87.30;;;;;;1916850;74;21081;-47
2022/03/11 10:25:25;;;;;;;24.72;17.85;;;1.30;86.30;;;;;;1916760;74;21062;-48
2022/03/11 10:28:08;;;;;;;21.37;12.68;;;1.30;86.30;;;;;;1914156;73;21054;-47
2022/03/11 10:30:43;;;;;;;18.55;12.00;;;1.30;86.00;;;;;;1917502;74;21110;-46
2022/03/11 10:33:14;;;;;;;27.35;15.18;;;1.20;86.30;;;;;;1912878;73;21143;-47
2022/03/11 10:35:50;;;;;;;40.33;25.25;;;1.20;86.50;;;;;;1917912;74;21118;-48
2022/03/11 10:38:25;;;;;;;27.05;16.85;;;1.30;87.10;;;;;;1923305;74;21132;-48
2022/03/11 10:40:57;;;;;;;28.20;16.20;;;1.30;87.40;;;;;;1923632;74;21152;-47
2022/03/11 10:43:28;;;;;;;25.65;15.03;;;1.40;87.00;;;;;;1923644;73;21114;-47
2022/03/11 10:46:12;;;;;;;20.40;13.00;;;1.50;86.70;;;;;;1923631;73;21001;-47
2022/03/11 10:48:53;;;;;;;8.90;5.72;;;1.50;85.90;;;;;;1923483;74;21092;-47
2022/03/11 10:51:33;;;;;;;11.65;7.87;;;1.40;85.80;;;;;;1923591;73;21118;-48
2022/03/11 10:54:04;;;;;;;15.18;9.70;;;1.30;85.80;;;;;;1923316;73;21080;-46
2022/03/11 10:56:36;;;;;;;21.30;12.58;;;1.20;86.40;;;;;;1915231;74;21049;-47
2022/03/11 10:59:17;;;;;;;16.07;11.12;;;1.20;86.90;;;;;;1923469;73;21048;-48
2022/03/11 11:01:48;;;;;;;13.28;8.65;;;1.20;86.70;;;;;;1921693;74;21025;-48
2022/03/11 11:04:18;;;;;;;18.07;12.65;;;1.10;85.70;;;;;;1922254;74;21072;-47
2022/03/11 11:06:48;;;;;;;16.75;10.93;;;1.10;86.20;;;;;;1923361;73;21135;-47
2022/03/11 11:09:18;;;;;;;15.03;10.03;;;1.00;86.30;;;;;;1923673;74;21068;-48
2022/03/11 11:11:47;;;;;;;11.28;8.25;;;1.00;86.80;;;;;;1923828;74;20993;-47
2022/03/11 11:14:17;;;;;;;18.57;10.85;;;1.00;86.90;;;;;;1923642;74;21085;-46
2022/03/11 11:16:50;;;;;;;11.70;7.20;;;1.00;86.50;;;;;;1923586;74;21014;-46
2022/03/11 11:19:21;;;;;;;14.25;9.45;;;0.90;87.10;;;;;;1923707;74;21567;-47
2022/03/11 11:21:52;;;;;;;12.82;8.33;;;0.90;86.40;;;;;;1923623;74;21049;-48
2022/03/11 11:24:23;;;;;;;16.35;9.63;;;0.90;86.30;;;;;;1923623;74;21079;-48
2022/03/11 11:26:57;;;;;;;12.58;8.05;;;0.80;86.40;;;;;;1923641;74;21036;-47
2022/03/11 11:29:32;;;;;;;14.73;8.50;;;0.80;86.40;;;;;;1920812;74;21042;-47
2022/03/11 11:32:04;;;;;;;21.70;13.62;;;0.70;86.60;;;;;;1914197;75;21010;-47
2022/03/11 11:34:35;;;;;;;12.43;9.15;;;0.70;86.60;;;;;;1914247;75;21033;-48
2022/03/11 11:37:09;;;;;;;10.88;6.72;;;0.70;86.30;;;;;;1914060;75;21072;-47
2022/03/11 11:39:40;;;;;;;9.70;7.08;;;0.70;86.80;;;;;;1914318;74;21002;-48
2022/03/11 11:42:12;;;;;;;7.20;5.25;;;0.70;86.90;;;;;;1914214;75;21061;-46
2022/03/11 11:44:42;;;;;;;11.22;6.95;;;0.70;86.50;;;;;;1913932;75;21006;-46
2022/03/11 11:47:20;;;;;;;11.95;8.40;;;0.70;86.30;;;;;;1914281;75;21068;-47
2022/03/11 11:49:51;;;;;;;11.18;8.80;;;0.70;86.60;;;;;;1914128;74;21038;-48
2022/03/11 11:52:37;;;;;;;9.65;6.00;;;0.70;86.50;;;;;;1914063;75;21061;-47
2022/03/11 11:55:19;;;;;;;;;;;0.70;86.70;;;;;;1917100;75;21123;-47
2022/03/11 11:57:49;;;;;;;13.28;7.53;;;0.70;86.70;;;;;;1900387;74;20404;-47
2022/03/11 12:00:38;;;;;;;18.55;12.10;;;0.70;86.50;;;;;;1901254;75;21086;-49
2022/03/11 12:03:14;;;;;;;13.22;8.93;;;0.70;86.40;;;;;;1900825;75;21023;-48
2022/03/11 12:05:46;;;;;;;13.10;8.55;;;0.70;85.80;;;;;;1901316;75;21078;-48
2022/03/11 12:08:36;;;;;;;15.00;9.80;;;0.70;86.60;;;;;;1901362;75;21101;-47
2022/03/11 12:11:05;;;;;;;8.33;5.78;;;0.80;86.70;;;;;;1902340;75;21100;-45
2022/03/11 12:13:42;;;;;;;9.93;6.92;;;0.70;86.00;;;;;;1904773;75;21092;-45
2022/03/11 12:16:21;;;;;;;11.70;7.87;;;0.70;86.70;;;;;;1905114;75;20995;-48
2022/03/11 12:18:50;;;;;;;13.38;8.83;;;0.70;87.20;;;;;;1905238;75;21093;-46
2022/03/11 12:21:29;;;;;;;12.33;7.08;;;0.70;86.30;;;;;;1905026;75;21038;-47
2022/03/11 12:24:17;;;;;;;12.13;8.63;;;0.80;86.10;;;;;;1905219;75;21038;-47
2022/03/11 12:26:46;;;;;;;21.17;12.43;;;0.80;86.80;;;;;;1904871;75;21210;-46
2022/03/11 12:29:35;;;;;;;17.20;8.80;;;0.80;86.40;;;;;;1905090;75;21128;-47
2022/03/11 12:32:09;;;;;;;12.18;7.05;;;0.90;86.80;;;;;;1920379;75;21057;-48
2022/03/11 12:34:39;;;;;;;14.70;9.95;;;0.90;86.60;;;;;;1920413;73;21457;-45
2022/03/11 12:37:10;;;;;;;11.05;7.08;;;0.90;86.80;;;;;;1920083;75;21041;-45
2022/03/11 12:39:39;;;;;;;10.70;6.70;;;0.90;86.60;;;;;;1903626;74;21055;-46
2022/03/11 12:42:10;;;;;;;14.70;8.58;;;1.00;86.30;;;;;;1889846;76;21102;-45
2022/03/11 12:44:48;;;;;;;15.48;10.53;;;0.90;86.50;;;;;;1889763;75;21167;-45
2022/03/11 12:47:18;;;;;;;8.43;5.28;;;0.90;86.20;;;;;;1889740;75;21090;-46
2022/03/11 12:49:49;;;;;;;10.40;6.50;;;0.90;86.30;;;;;;1910645;74;21070;-46
2022/03/11 12:52:26;;;;;;;10.15;7.67;;;0.90;86.40;;;;;;1913772;74;21062;-49
2022/03/11 12:54:53;;;;;;;12.43;8.45;;;0.80;86.50;;;;;;1918285;74;21118;-46
2022/03/11 12:57:22;;;;;;;9.78;6.50;;;0.90;88.40;;;;;;1920193;75;21022;-47
2022/03/11 12:59:51;;;;;;;10.18;6.97;;;0.90;87.50;;;;;;1920045;75;21021;-45
2022/03/11 13:02:21;;;;;;;19.80;11.75;;;0.90;87.10;;;;;;1917231;74;21144;-44
2022/03/11 13:04:50;;;;;;;12.23;8.55;;;0.90;87.10;;;;;;1909946;74;21078;-44
2022/03/11 13:07:20;;;;;;;21.23;12.35;;;0.90;87.60;;;;;;1912040;74;21085;-45
2022/03/11 13:09:54;;;;;;;7.00;5.28;;;0.80;87.30;;;;;;1917447;74;21007;-44
2022/03/11 13:12:27;;;;;;;12.15;8.10;;;0.90;87.70;;;;;;1860100;77;21034;-43
2022/03/11 13:15:13;;;;;;;15.55;10.45;;;0.90;87.40;;;;;;1829206;78;21021;-44
2022/03/11 13:17:46;;;;;;;16.65;9.68;;;0.90;87.40;;;;;;1846842;78;21014;-46
2022/03/11 13:20:35;;;;;;;18.20;10.95;;;0.90;87.60;;;;;;1859904;77;21147;-45
2022/03/11 13:23:19;;;;;;;9.25;6.15;;;0.90;87.80;;;;;;1859974;77;21062;-45
2022/03/11 13:25:57;;;;;;;15.23;10.32;;;0.90;87.80;;;;;;1829230;78;21059;-46
2022/03/11 13:28:32;;;;;;;13.62;8.10;;;0.70;87.90;;;;;;1846851;78;21026;-45
2022/03/11 13:31:26;;;;;;;20.85;12.95;;;0.70;88.20;;;;;;1858218;77;21085;-45
2022/03/11 13:34:01;;;;;;;52.78;24.18;;;0.70;88.80;;;;;;1855646;77;21058;-45
2022/03/11 13:36:35;;;;;;;19.75;13.85;;;0.60;88.90;;;;;;1855876;77;21092;-45
2022/03/11 13:39:07;;;;;;;19.65;12.50;;;0.70;89.40;;;;;;1855844;77;21077;-46
2022/03/11 13:41:46;;;;;;;17.20;10.13;;;0.70;89.10;;;;;;1855558;77;21034;-46
2022/03/11 13:44:27;;;;;;;10.30;8.10;;;0.70;89.00;;;;;;1855867;77;21051;-46
2022/03/11 13:47:04;;;;;;;21.20;14.18;;;0.70;89.50;;;;;;1825244;78;21034;-45
2022/03/11 13:49:44;;;;;;;9.18;5.87;;;0.70;89.40;;;;;;1821664;78;21033;-45
2022/03/11 13:52:15;;;;;;;16.30;11.48;;;0.80;89.70;;;;;;1855130;77;21058;-45
2022/03/11 13:54:46;;;;;;;15.78;8.30;;;0.80;90.00;;;;;;1823357;79;21179;-45
2022/03/11 13:57:30;;;;;;;7.47;5.25;;;0.70;89.50;;;;;;1855687;77;21030;-46
2022/03/11 14:00:20;;;;;;;11.93;8.05;;;0.70;90.00;;;;;;1888440;76;21034;-46
2022/03/11 14:02:49;;;;;;;18.45;12.73;;;0.60;89.90;;;;;;1924442;74;21498;-47
2022/03/11 14:05:26;;;;;;;13.18;8.35;;;0.60;89.70;;;;;;1924592;74;21018;-46
2022/03/11 14:08:06;;;;;;;19.70;11.48;;;0.60;89.90;;;;;;1924475;73;21463;-47
2022/03/11 14:10:36;;;;;;;13.40;9.33;;;0.70;89.90;;;;;;1922869;74;21103;-45
2022/03/11 14:13:10;;;;;;;11.12;7.60;;;0.70;89.80;;;;;;1924336;74;21021;-47
2022/03/11 14:15:43;;;;;;;11.08;7.35;;;0.70;90.10;;;;;;1924421;74;21095;-45
2022/03/11 14:18:14;;;;;;;11.57;8.18;;;0.70;90.00;;;;;;1924469;74;21029;-46
2022/03/11 14:20:45;;;;;;;10.55;5.92;;;0.70;90.00;;;;;;1924612;74;21077;-47
2022/03/11 14:23:15;;;;;;;24.02;13.75;;;0.60;90.00;;;;;;1924654;74;21033;-46
2022/03/11 14:25:46;;;;;;;8.60;6.35;;;0.60;90.10;;;;;;1922819;74;21680;-47
2022/03/11 14:28:17;;;;;;;9.35;7.60;;;0.60;90.40;;;;;;1923673;74;21467;-46
2022/03/11 14:30:47;;;;;;;9.88;6.75;;;0.70;90.40;;;;;;1923541;73;21001;-46
2022/03/11 14:33:18;;;;;;;11.35;6.83;;;0.70;90.40;;;;;;1908285;74;21053;-46
2022/03/11 14:35:47;;;;;;;14.20;9.28;;;0.70;90.40;;;;;;1902191;75;21042;-47
2022/03/11 14:38:17;;;;;;;12.98;8.80;;;0.60;90.40;;;;;;1902131;75;21022;-47
2022/03/11 14:40:47;;;;;;;12.93;7.97;;;0.60;90.50;;;;;;1902259;75;20994;-47
2022/03/11 14:43:16;;;;;;;12.10;8.45;;;0.60;90.60;;;;;;1902329;75;21011;-47
2022/03/11 14:45:45;;;;;;;13.03;8.58;;;0.60;90.70;;;;;;1902191;75;21043;-46
2022/03/11 14:48:15;;;;;;;16.07;7.33;;;0.60;90.60;;;;;;1902096;75;21166;-46
2022/03/11 14:50:44;;;;;;;13.38;8.48;;;0.60;90.80;;;;;;1902105;75;21070;-46
2022/03/11 14:53:14;;;;;;;19.15;11.25;;;0.60;90.70;;;;;;1902050;75;21026;-45
2022/03/11 14:55:45;;;;;;;17.57;11.80;;;0.60;90.70;;;;;;1902076;74;21022;-46
2022/03/11 14:58:14;;;;;;;11.22;8.20;;;0.60;90.70;;;;;;1902089;75;21104;-45
2022/03/11 15:00:44;;;;;;;15.95;9.83;;;0.60;90.80;;;;;;1902067;75;21034;-47
2022/03/11 15:03:13;;;;;;;11.40;7.17;;;0.50;90.70;;;;;;1902032;75;21120;-47
2022/03/11 15:05:43;;;;;;;14.25;10.18;;;0.50;90.80;;;;;;1902174;75;21030;-46
2022/03/11 15:08:13;;;;;;;17.35;11.78;;;0.50;90.70;;;;;;1902210;75;21011;-46
2022/03/11 15:10:43;;;;;;;18.42;12.70;;;0.50;90.90;;;;;;1902178;75;21030;-45
2022/03/11 15:13:12;;;;;;;10.25;8.73;;;0.50;90.80;;;;;;1901976;74;21026;-46
2022/03/11 15:15:41;;;;;;;16.40;9.33;;;0.50;90.90;;;;;;1900537;75;21100;-48
2022/03/11 15:18:10;;;;;;;19.73;11.00;;;0.60;90.80;;;;;;1901449;75;21022;-47
2022/03/11 15:20:41;;;;;;;23.18;12.10;;;0.60;90.70;;;;;;1901850;75;21030;-47
2022/03/11 15:23:11;;;;;;;21.87;12.47;;;0.50;90.70;;;;;;1902211;75;21530;-47
2022/03/11 15:25:40;;;;;;;19.25;10.82;;;0.50;90.70;;;;;;1902032;74;21014;-46
2022/03/11 15:28:09;;;;;;;10.40;7.75;;;0.60;90.80;;;;;;1902208;74;21018;-47
2022/03/11 15:30:40;;;;;;;12.25;9.40;;;0.50;90.80;;;;;;1902060;75;21046;-49
2022/03/11 15:33:09;;;;;;;18.65;11.63;;;0.50;90.90;;;;;;1903238;74;21096;-47
2022/03/11 15:35:39;;;;;;;12.35;8.75;;;0.50;90.90;;;;;;1924638;74;21002;-46
2022/03/11 15:38:08;;;;;;;10.43;8.30;;;0.50;91.10;;;;;;1924565;74;21045;-46
2022/03/11 15:40:38;;;;;;;10.82;8.60;;;0.40;91.30;;;;;;1924597;74;21029;-47
2022/03/11 15:43:08;;;;;;;11.15;8.65;;;0.40;91.30;;;;;;1924609;74;21029;-47
2022/03/11 15:45:38;;;;;;;15.25;10.25;;;0.40;91.40;;;;;;1924570;74;21005;-47
2022/03/11 15:48:07;;;;;;;8.40;7.05;;;0.30;91.40;;;;;;1924596;74;21033;-49
2022/03/11 15:50:37;;;;;;;12.20;7.45;;;0.30;91.50;;;;;;1924716;74;21002;-47
2022/03/11 15:53:07;;;;;;;6.75;6.08;;;0.30;91.50;;;;;;1924738;74;21029;-50
2022/03/11 15:55:36;;;;;;;11.05;7.40;;;0.30;91.60;;;;;;1924803;73;21025;-48
2022/03/11 15:58:06;;;;;;;23.70;12.95;;;0.30;91.60;;;;;;1924797;74;21029;-46
2022/03/11 16:00:37;;;;;;;7.90;6.67;;;0.30;91.70;;;;;;1924963;74;21014;-46
2022/03/11 16:03:06;;;;;;;15.13;9.38;;;0.30;91.80;;;;;;1924777;74;21041;-50
2022/03/11 16:05:38;;;;;;;15.03;10.30;;;0.30;91.80;;;;;;1924785;74;21034;-47
2022/03/11 16:08:07;;;;;;;16.93;12.00;;;0.30;91.80;;;;;;1924669;74;21103;-47
2022/03/11 16:10:36;;;;;;;11.57;7.05;;;0.30;91.70;;;;;;1924663;74;21005;-46
2022/03/11 16:13:06;;;;;;;18.35;13.20;;;0.30;91.70;;;;;;1924624;73;21049;-47
2022/03/11 16:15:35;;;;;;;14.35;9.98;;;0.20;91.70;;;;;;1924704;74;21131;-49
2022/03/11 16:18:06;;;;;;;19.15;12.50;;;0.20;91.80;;;;;;1924601;74;21030;-48
2022/03/11 16:20:35;;;;;;;15.50;11.55;;;0.20;91.80;;;;;;1924687;74;21138;-50
2022/03/11 16:23:05;;;;;;;17.82;12.37;;;0.10;91.90;;;;;;1924580;74;21118;-48
2022/03/11 16:25:35;;;;;;;13.65;8.90;;;0.10;91.90;;;;;;1924731;73;21010;-48
2022/03/11 16:28:04;;;;;;;10.10;9.08;;;0.10;92.00;;;;;;1924747;74;21091;-46
2022/03/11 16:30:33;;;;;;;15.88;11.10;;;0.10;92.00;;;;;;1924671;74;21194;-46
2022/03/11 16:33:02;;;;;;;11.55;7.28;;;0.10;92.00;;;;;;1924636;74;21099;-47
2022/03/11 16:35:32;;;;;;;19.30;12.10;;;0.10;92.00;;;;;;1924544;74;21042;-47
2022/03/11 16:38:02;;;;;;;22.35;13.40;;;0.10;92.00;;;;;;1924627;73;21065;-46
2022/03/11 16:40:32;;;;;;;8.18;6.90;;;0.10;92.00;;;;;;1924624;74;21014;-47
2022/03/11 16:43:01;;;;;;;14.83;10.45;;;0.10;92.00;;;;;;1924584;73;21088;-47
2022/03/11 16:45:31;;;;;;;18.30;12.30;;;0.10;91.90;;;;;;1924712;74;20998;-46
2022/03/11 16:48:02;;;;;;;8.25;6.45;;;0.10;92.00;;;;;;1924571;73;21018;-47
2022/03/11 16:50:32;;;;;;;17.73;12.23;;;0.00;92.00;;;;;;1924621;74;21099;-46
2022/03/11 16:53:02;;;;;;;19.20;12.80;;;0.00;92.10;;;;;;1924521;74;21018;-46
2022/03/11 16:55:31;;;;;;;10.55;8.30;;;0.00;92.00;;;;;;1924568;73;21083;-46
2022/03/11 16:58:00;;;;;;;11.83;8.48;;;0.00;91.80;;;;;;1924671;74;21022;-50
2022/03/11 17:00:30;;;;;;;14.28;9.88;;;0.00;91.80;;;;;;1924534;74;20997;-49
2022/03/11 17:02:59;;;;;;;10.40;7.72;;;0.00;92.00;;;;;;1924530;74;21025;-47
2022/03/11 17:05:28;;;;;;;10.70;7.95;;;-0.10;92.00;;;;;;1924630;74;21002;-46
2022/03/11 17:07:58;;;;;;;18.77;12.35;;;-0.10;92.00;;;;;;1924470;74;21185;-47
2022/03/11 17:10:27;;;;;;;10.55;6.67;;;-0.10;92.00;;;;;;1924519;74;21094;-48
2022/03/11 17:12:57;;;;;;;8.55;5.58;;;-0.10;91.90;;;;;;1924466;74;21083;-47
2022/03/11 17:15:27;;;;;;;10.68;7.83;;;-0.10;91.90;;;;;;1924606;74;21054;-46
2022/03/11 17:17:56;;;;;;;14.85;10.10;;;-0.10;91.90;;;;;;1924584;74;21173;-46
2022/03/11 17:20:25;;;;;;;12.35;8.88;;;-0.10;91.90;;;;;;1924597;74;21146;-46
2022/03/11 17:22:55;;;;;;;12.07;8.43;;;-0.10;91.80;;;;;;1924544;74;21092;-48
2022/03/11 17:25:24;;;;;;;9.35;7.47;;;0.00;91.70;;;;;;1924542;74;21091;-47
2022/03/11 17:27:54;;;;;;;14.93;8.58;;;-0.10;91.70;;;;;;1924543;74;21025;-46
2022/03/11 17:30:23;;;;;;;7.03;5.30;;;-0.10;91.60;;;;;;1924560;74;21018;-47
2022/03/11 17:32:53;;;;;;;17.80;10.48;;;-0.10;91.70;;;;;;1924401;74;21096;-47
2022/03/11 17:35:23;;;;;;;14.87;11.53;;;-0.20;91.70;;;;;;1924677;74;21061;-47
2022/03/11 17:37:52;;;;;;;18.98;13.43;;;-0.10;91.80;;;;;;1924633;74;21104;-49
2022/03/11 17:40:22;;;;;;;17.87;10.38;;;-0.10;91.70;;;;;;1924561;74;21049;-46
2022/03/11 17:42:51;;;;;;;14.78;9.18;;;-0.10;91.70;;;;;;1924562;73;21022;-47
2022/03/11 17:45:21;;;;;;;9.70;6.70;;;-0.20;91.60;;;;;;1924749;74;21022;-50
2022/03/11 17:47:51;;;;;;;12.70;8.78;;;-0.20;91.60;;;;;;1924514;73;21075;-46
2022/03/11 17:50:21;;;;;;;15.40;7.97;;;-0.20;91.40;;;;;;1924783;74;21025;-47
2022/03/11 17:52:51;;;;;;;8.93;6.83;;;-0.30;91.60;;;;;;1924595;74;21076;-48
2022/03/11 17:55:20;;;;;;;10.08;6.92;;;-0.30;91.80;;;;;;1924671;74;21021;-47
2022/03/11 17:57:51;;;;;;;8.45;6.42;;;-0.30;91.80;;;;;;1924715;74;21083;-48
2022/03/11 18:00:21;;;;;;;21.15;11.68;;;-0.30;91.80;;;;;;1924626;73;21491;-46
2022/03/11 18:02:51;;;;;;;12.37;8.38;;;-0.30;91.80;;;;;;1924714;74;21029;-46
2022/03/11 18:05:20;;;;;;;15.60;11.28;;;-0.30;91.60;;;;;;1924769;74;21026;-47
2022/03/11 18:07:49;;;;;;;10.90;6.83;;;-0.30;91.60;;;;;;1924784;74;21509;-51
2022/03/11 18:10:19;;;;;;;12.63;6.97;;;-0.30;91.60;;;;;;1891781;74;21049;-48
2022/03/11 18:12:48;;;;;;;13.80;9.08;;;-0.40;91.50;;;;;;1924570;74;21095;-50
2022/03/11 18:15:19;;;;;;;10.70;7.75;;;-0.40;91.60;;;;;;1924633;74;21026;-47
2022/03/11 18:17:48;;;;;;;14.80;8.70;;;-0.40;91.50;;;;;;1924658;74;21075;-47
2022/03/11 18:20:19;;;;;;;15.72;9.68;;;-0.40;91.60;;;;;;1924777;74;21034;-49
2022/03/11 18:22:53;;;;;;;12.82;8.75;;;-0.40;91.50;;;;;;1924783;74;21049;-48
2022/03/11 18:25:21;;;;;;;13.98;8.93;;;-0.40;91.30;;;;;;1923091;74;21547;-48
2022/03/11 18:27:50;;;;;;;8.43;5.97;;;-0.40;91.20;;;;;;1924727;74;21516;-48
2022/03/11 18:30:20;;;;;;;18.90;10.48;;;-0.50;91.30;;;;;;1924638;74;21005;-46
2022/03/11 18:32:49;;;;;;;12.60;8.75;;;-0.50;91.40;;;;;;1924671;74;21029;-46
2022/03/11 18:35:19;;;;;;;6.85;6.17;;;-0.40;91.40;;;;;;1921077;74;21500;-48
2022/03/11 18:37:48;;;;;;;13.98;9.65;;;-0.40;91.50;;;;;;1902111;75;21026;-46
2022/03/11 18:40:17;;;;;;;6.90;6.22;;;-0.50;91.50;;;;;;1902229;75;21002;-47
2022/03/11 18:42:47;;;;;;;12.40;8.15;;;-0.50;91.50;;;;;;1902200;74;21058;-46
2022/03/11 18:45:16;;;;;;;9.95;7.00;;;-0.50;91.50;;;;;;1902145;75;21045;-46
2022/03/11 18:47:47;;;;;;;13.38;7.53;;;-0.60;91.50;;;;;;1902066;75;21104;-46
2022/03/11 18:50:16;;;;;;;12.13;9.73;;;-0.60;91.40;;;;;;1902102;75;21018;-49
2022/03/11 18:52:46;;;;;;;13.28;8.15;;;-0.60;91.50;;;;;;1902030;75;21088;-47
2022/03/11 18:55:16;;;;;;;8.30;6.25;;;-0.60;91.60;;;;;;1902264;75;21073;-48
2022/03/11 18:57:46;;;;;;;8.18;5.67;;;-0.60;91.60;;;;;;1902205;75;21473;-51
2022/03/11 19:00:16;;;;;;;7.55;5.25;;;-0.60;91.60;;;;;;1902170;75;21089;-51
2022/03/11 19:02:45;;;;;;;11.90;5.95;;;-0.60;91.60;;;;;;1902113;75;21030;-49
2022/03/11 19:05:20;;;;;;;10.40;7.75;;;-0.60;91.60;;;;;;1902115;75;21097;-48
2022/03/11 19:07:45;;;;;;;9.73;7.87;;;-0.60;91.50;;;;;;1901426;74;21500;-51
2022/03/11 19:10:16;;;;;;;11.22;8.15;;;-0.60;91.40;;;;;;1902184;75;21042;-48
2022/03/11 19:12:46;;;;;;;13.00;7.83;;;-0.60;91.30;;;;;;1902105;75;21026;-48
2022/03/11 19:15:15;;;;;;;7.70;6.80;;;-0.60;91.30;;;;;;1902134;75;21022;-47
2022/03/11 19:17:45;;;;;;;7.10;4.92;;;-0.60;91.40;;;;;;1902176;75;21104;-47
2022/03/11 19:20:14;;;;;;;7.40;5.92;;;-0.70;91.30;;;;;;1902238;75;21546;-48
2022/03/11 19:22:44;;;;;;;8.85;6.83;;;-0.70;91.30;;;;;;1902177;75;21030;-50
2022/03/11 19:25:13;;;;;;;6.05;5.25;;;-0.70;91.40;;;;;;1902122;75;21003;-50
2022/03/11 19:27:43;;;;;;;10.90;7.22;;;-0.70;91.40;;;;;;1902171;74;21031;-47
2022/03/11 19:30:16;;;;;;;12.00;7.75;;;-0.70;91.30;;;;;;1902109;75;21026;-48
2022/03/11 19:32:48;;;;;;;10.72;7.60;;;-0.80;91.30;;;;;;1902172;75;21096;-48
2022/03/11 19:35:22;;;;;;;16.27;9.93;;;-0.80;91.10;;;;;;1902093;75;21425;-47
2022/03/11 19:37:47;;;;;;;5.40;4.62;;;-0.80;91.00;;;;;;1900823;74;21355;-47
2022/03/11 19:40:21;;;;;;;11.80;9.03;;;-0.90;91.10;;;;;;1902105;75;21046;-47
2022/03/11 19:42:47;;;;;;;10.25;5.37;;;-0.90;91.00;;;;;;1901757;75;21058;-50
2022/03/11 19:45:20;;;;;;;16.80;7.35;;;-0.90;91.20;;;;;;1902213;75;21094;-49
2022/03/11 19:47:47;;;;;;;8.88;6.53;;;-0.90;91.20;;;;;;1901898;75;21512;-47
2022/03/11 19:50:21;;;;;;;5.72;4.65;;;-0.90;91.00;;;;;;1902148;75;21119;-51
2022/03/11 19:52:48;;;;;;;15.38;9.13;;;-0.90;91.10;;;;;;1901826;75;21038;-48
2022/03/11 19:55:18;;;;;;;9.50;5.85;;;-0.90;90.90;;;;;;1902389;75;21069;-47
2022/03/11 19:57:48;;;;;;;12.45;9.40;;;-0.90;90.90;;;;;;1902324;75;21080;-47
2022/03/11 20:00:18;;;;;;;10.60;7.50;;;-0.90;90.80;;;;;;1902255;75;21072;-48
2022/03/11 20:02:49;;;;;;;10.78;7.85;;;-1.00;90.80;;;;;;1902198;75;21119;-49
2022/03/11 20:05:18;;;;;;;14.28;10.03;;;-1.00;90.90;;;;;;1902294;75;20995;-48
2022/03/11 20:07:50;;;;;;;13.35;8.80;;;-1.00;90.90;;;;;;1902287;75;21062;-47
2022/03/11 20:10:19;;;;;;;11.70;8.15;;;-1.00;90.80;;;;;;1902161;75;21480;-48
2022/03/11 20:12:49;;;;;;;10.80;7.72;;;-1.10;91.00;;;;;;1902040;75;21031;-47
2022/03/11 20:15:18;;;;;;;9.00;6.05;;;-1.10;91.00;;;;;;1902163;75;21084;-48
2022/03/11 20:17:48;;;;;;;11.38;7.25;;;-1.10;91.10;;;;;;1902179;75;21026;-48
2022/03/11 20:20:17;;;;;;;10.35;7.42;;;-1.20;91.20;;;;;;1902104;75;21132;-47
2022/03/11 20:22:47;;;;;;;7.92;6.58;;;-1.20;91.20;;;;;;1902200;75;21081;-47
2022/03/11 20:25:16;;;;;;;9.43;7.22;;;-1.20;91.10;;;;;;1902119;75;21095;-49
2022/03/11 20:27:46;;;;;;;11.10;7.92;;;-1.20;91.20;;;;;;1902059;75;21007;-47
2022/03/11 20:30:17;;;;;;;11.55;8.13;;;-1.20;91.20;;;;;;1902222;75;21027;-48
2022/03/11 20:32:46;;;;;;;15.15;8.88;;;-1.20;91.20;;;;;;1902041;75;21026;-47
2022/03/11 20:35:16;;;;;;;11.48;7.53;;;-1.20;91.30;;;;;;1902171;75;21030;-47
2022/03/11 20:37:46;;;;;;;16.17;8.88;;;-1.20;91.40;;;;;;1916637;74;21049;-48
2022/03/11 20:40:19;;;;;;;8.90;6.47;;;-1.20;91.30;;;;;;1924680;74;21132;-47
2022/03/11 20:42:49;;;;;;;11.05;8.28;;;-1.20;91.30;;;;;;1924709;74;21444;-48
2022/03/11 20:45:19;;;;;;;8.80;6.90;;;-1.30;91.20;;;;;;1924763;74;21017;-47
2022/03/11 20:47:48;;;;;;;5.92;5.22;;;-1.30;91.30;;;;;;1924625;74;21037;-47
2022/03/11 20:50:20;;;;;;;10.88;7.55;;;-1.30;91.30;;;;;;1924792;74;21049;-48
2022/03/11 20:52:49;;;;;;;14.65;10.45;;;-1.30;91.40;;;;;;1924496;74;21034;-47
2022/03/11 20:55:19;;;;;;;9.90;8.15;;;-1.30;91.40;;;;;;1924631;74;20997;-47
2022/03/11 20:57:48;;;;;;;9.78;5.92;;;-1.30;91.30;;;;;;1924688;74;21076;-48
2022/03/11 21:00:18;;;;;;;12.35;8.88;;;-1.30;91.20;;;;;;1924559;74;21076;-47
2022/03/11 21:02:48;;;;;;;8.45;5.25;;;-1.30;91.20;;;;;;1924701;74;21049;-48
2022/03/11 21:05:17;;;;;;;10.80;7.97;;;-1.30;91.30;;;;;;1924609;74;21063;-47
2022/03/11 21:07:47;;;;;;;13.40;10.15;;;-1.40;91.20;;;;;;1924584;74;21018;-48
2022/03/11 21:10:16;;;;;;;9.45;5.97;;;-1.40;91.30;;;;;;1924590;74;21126;-47
2022/03/11 21:12:46;;;;;;;12.95;9.25;;;-1.40;91.40;;;;;;1924650;74;21083;-47
2022/03/11 21:15:16;;;;;;;9.38;6.90;;;-1.40;91.20;;;;;;1924649;74;21103;-47
2022/03/11 21:17:45;;;;;;;8.43;6.45;;;-1.40;91.30;;;;;;1924676;74;21616;-48
2022/03/11 21:20:15;;;;;;;10.63;7.05;;;-1.40;91.20;;;;;;1924682;73;21084;-50
2022/03/11 21:22:45;;;;;;;9.00;7.47;;;-1.50;91.20;;;;;;1924562;73;21045;-48
2022/03/11 21:25:15;;;;;;;10.00;7.00;;;-1.50;91.20;;;;;;1924536;74;21029;-47
2022/03/11 21:27:46;;;;;;;13.10;7.33;;;-1.50;91.20;;;;;;1923740;74;21143;-51
2022/03/11 21:30:16;;;;;;;15.28;10.55;;;-1.40;91.20;;;;;;1924657;74;21037;-47
2022/03/11 21:32:45;;;;;;;7.50;6.67;;;-1.40;91.10;;;;;;1924498;74;21095;-48
2022/03/11 21:35:14;;;;;;;12.78;8.00;;;-1.40;91.00;;;;;;1924556;74;21088;-48
2022/03/11 21:37:45;;;;;;;13.25;9.48;;;-1.50;91.00;;;;;;1916911;74;21124;-48
2022/03/11 21:40:14;;;;;;;10.23;7.15;;;-1.50;91.10;;;;;;1902143;75;21046;-48
2022/03/11 21:42:44;;;;;;;7.80;5.65;;;-1.40;91.00;;;;;;1902071;75;21072;-48
2022/03/11 21:45:13;;;;;;;9.75;6.95;;;-1.40;91.00;;;;;;1902015;74;21022;-48
2022/03/11 21:47:43;;;;;;;6.00;4.92;;;-1.40;91.00;;;;;;1902145;75;21097;-51
2022/03/11 21:50:12;;;;;;;13.88;8.03;;;-1.40;91.00;;;;;;1902008;75;21437;-47
2022/03/11 21:52:42;;;;;;;11.55;7.80;;;-1.40;90.90;;;;;;1902026;75;21026;-48
2022/03/11 21:55:12;;;;;;;8.85;6.92;;;-1.40;90.90;;;;;;1901960;75;21010;-48
2022/03/11 21:57:42;;;;;;;8.93;5.10;;;-1.40;90.80;;;;;;1902127;75;21121;-47
2022/03/11 22:00:11;;;;;;;12.07;8.35;;;-1.40;90.80;;;;;;1902006;75;21030;-47
2022/03/11 22:02:40;;;;;;;26.17;9.68;;;-1.40;90.90;;;;;;1901954;75;21030;-47
2022/03/11 22:05:10;;;;;;;9.45;5.97;;;-1.40;90.80;;;;;;1902069;75;21034;-47
2022/03/11 22:07:39;;;;;;;10.68;8.98;;;-1.40;90.80;;;;;;1902009;75;20999;-48
2022/03/11 22:10:10;;;;;;;9.53;7.22;;;-1.40;90.90;;;;;;1901925;75;21100;-47
2022/03/11 22:12:41;;;;;;;16.05;10.63;;;-1.40;91.00;;;;;;1902028;74;21031;-51
2022/03/11 22:15:10;;;;;;;9.63;7.10;;;-1.40;90.90;;;;;;1901951;75;21034;-48